Darstellungsparameter: Aktuell verwendete Einstellungen:
Skalierung der Graphiken ... ?
xyx+y,   Skalierungsfaktor:      Skalierung: Modus: x, Faktor: 1
Darstellungszeitraum ... ?
Vom - - bis: - -   Zeitraum: 04.09.2009 - 05.09.2009
Min/Max/Avg-Anzeige ... ?
Zeige MMA aktuell
Zeige MMA Monat
Zeige MMA alles
Zeige --A aktuell
Zeige --A Monat
Zeige --A alles
Keine MMA-Anzeige
MMA:
Keine MMA-Graphiken
MMA-Basis: 04.09.2009 - 05.09.2009
Quicknavigation für Darstellung... ?
Tage:      1T, 2T, 3T, 5T -1T -2T -3T -5T +1T +2T +3T +5T
Wochen: 1W, 2W, 3W -1W -2W -3W +1W +2W +3W
Monate: 1M, 3M, 6M -1M -3M -6M +1M +3M +6M
Jahre:    1J, 3J, 5J, 10J -1J -3J -5J -10J +1J +3J +5J +10J
Nutze für die Darstellung ... ?
Originaldaten oder Mittelwerte auf ...
Stundenbasis Tagesbasis Wochenbasis
Monatsbasis Jahresbasis      Datenbasis: Original-Daten
Darstellen als:
Statistik (Auto) Statistik J:M      Darstellung:
Zur Graphik,    zurück zur Übersicht aller Sensoren.
 
Tabellarische Datenbersicht: ?
 
Sensor: Nr:Datum:Temp:Feuchte:Taupunkt:
Aussen-T/F 1 04-09-2009 00:00:05 16.1 C 49 % 5.39 C
2 04-09-2009 00:12:05 16.1 C 49 % 5.39 C
3 04-09-2009 00:24:05 16.1 C 48 % 5.1 C
4 04-09-2009 00:36:05 16 C 48 % 5.01 C
5 04-09-2009 00:48:05 15.9 C 49 % 5.21 C
6 04-09-2009 01:00:05 15.8 C 50 % 5.41 C
7 04-09-2009 01:12:05 15.7 C 51 % 5.6 C
8 04-09-2009 01:24:05 15.6 C 52 % 5.79 C
9 04-09-2009 01:36:05 15.6 C 53 % 6.06 C
10 04-09-2009 01:48:05 15.6 C 54 % 6.34 C
11 04-09-2009 02:00:05 15.5 C 55 % 6.51 C
12 04-09-2009 02:12:05 15.4 C 56 % 6.68 C
13 04-09-2009 02:24:05 15.2 C 58 % 7 C
14 04-09-2009 02:36:05 15.1 C 58 % 6.91 C
15 04-09-2009 02:48:05 15.1 C 59 % 7.16 C
16 04-09-2009 03:00:05 15.1 C 59 % 7.16 C
17 04-09-2009 03:12:05 15.1 C 59 % 7.16 C
18 04-09-2009 03:24:05 15.1 C 59 % 7.16 C
19 04-09-2009 03:36:05 15 C 60 % 7.31 C
20 04-09-2009 03:48:06 15.1 C 61 % 7.64 C
21 04-09-2009 04:00:06 15 C 61 % 7.55 C
22 04-09-2009 04:12:06 15 C 61 % 7.55 C
23 04-09-2009 04:24:06 15 C 62 % 7.79 C
24 04-09-2009 04:36:06 15 C 62 % 7.79 C
25 04-09-2009 04:48:06 14.9 C 62 % 7.69 C
Sensor: Nr:Datum:Temp:Feuchte:Taupunkt:
Aussen-T/F 26 04-09-2009 05:00:06 14.8 C 61 % 7.36 C
27 04-09-2009 05:12:06 14.8 C 61 % 7.36 C
28 04-09-2009 05:24:06 14.6 C 62 % 7.41 C
29 04-09-2009 05:36:06 14.5 C 62 % 7.32 C
30 04-09-2009 05:48:06 14.3 C 63 % 7.36 C
31 04-09-2009 06:00:06 14 C 64 % 7.31 C
32 04-09-2009 06:12:06 13.8 C 64 % 7.12 C
33 04-09-2009 06:24:06 13.7 C 63 % 6.79 C
34 04-09-2009 06:36:04 13.6 C 64 % 6.93 C
35 04-09-2009 06:48:02 13.7 C 64 % 7.02 C
36 04-09-2009 07:00:02 13.7 C 64 % 7.02 C
37 04-09-2009 07:12:03 13.8 C 64 % 7.12 C
38 04-09-2009 07:24:02 13.7 C 64 % 7.02 C
39 04-09-2009 07:36:01 13.4 C 64 % 6.74 C
40 04-09-2009 07:48:02 13.3 C 64 % 6.64 C
41 04-09-2009 08:00:02 13.2 C 64 % 6.55 C
42 04-09-2009 08:12:01 13.3 C 64 % 6.64 C
43 04-09-2009 08:24:02 13.5 C 63 % 6.6 C
44 04-09-2009 08:36:01 13.8 C 61 % 6.42 C
45 04-09-2009 08:48:01 13.9 C 61 % 6.51 C
46 04-09-2009 09:00:01 13.8 C 61 % 6.42 C
47 04-09-2009 09:12:01 13.9 C 61 % 6.51 C
48 04-09-2009 09:24:01 14 C 59 % 6.12 C
49 04-09-2009 09:36:01 14.2 C 59 % 6.31 C
50 04-09-2009 09:48:02 14.4 C 58 % 6.25 C
Sensor: Nr:Datum:Temp:Feuchte:Taupunkt:
Aussen-T/F 51 04-09-2009 10:00:02 14.7 C 55 % 5.76 C
52 04-09-2009 10:12:03 15.2 C 53 % 5.69 C
53 04-09-2009 10:24:02 15.5 C 51 % 5.42 C
54 04-09-2009 10:36:02 16.5 C 47 % 5.16 C
55 04-09-2009 10:48:01 17 C 46 % 5.31 C
56 04-09-2009 11:00:01 17.2 C 46 % 5.49 C
57 04-09-2009 11:12:01 17.5 C 46 % 5.76 C
58 04-09-2009 11:24:01 17.7 C 45 % 5.63 C
59 04-09-2009 11:36:01 18 C 42 % 4.91 C
60 04-09-2009 11:48:01 17.8 C 43 % 5.07 C
61 04-09-2009 12:00:01 17.6 C 45 % 5.54 C
62 04-09-2009 12:12:01 17.7 C 45 % 5.63 C
63 04-09-2009 12:24:02 17.7 C 45 % 5.63 C
64 04-09-2009 12:36:01 17.6 C 46 % 5.86 C
65 04-09-2009 12:48:02 17.3 C 46 % 5.58 C
66 04-09-2009 13:00:02 16.8 C 50 % 6.33 C
67 04-09-2009 13:12:02 16.2 C 56 % 7.42 C
68 04-09-2009 13:24:03 15.6 C 64 % 8.82 C
69 04-09-2009 13:36:02 15.8 C 67 % 9.69 C
70 04-09-2009 13:48:02 15.5 C 68 % 9.63 C
71 04-09-2009 14:00:02 14.3 C 75 % 9.93 C
72 04-09-2009 14:12:02 14.1 C 80 % 10.71 C
73 04-09-2009 14:24:02 14 C 83 % 11.16 C
74 04-09-2009 14:36:02 13.8 C 85 % 11.32 C
75 04-09-2009 14:48:02 13.8 C 87 % 11.68 C
Sensor: Nr:Datum:Temp:Feuchte:Taupunkt:
Aussen-T/F 76 04-09-2009 15:00:02 13.7 C 88 % 11.75 C
77 04-09-2009 15:12:01 13.8 C 89 % 12.02 C
78 04-09-2009 15:24:02 13.8 C 90 % 12.19 C
79 04-09-2009 15:36:02 14 C 90 % 12.39 C
80 04-09-2009 15:48:01 14.1 C 90 % 12.49 C
81 04-09-2009 16:00:02 14.5 C 90 % 12.88 C
82 04-09-2009 16:12:01 14.9 C 90 % 13.28 C
83 04-09-2009 16:24:01 15.5 C 89 % 13.7 C
84 04-09-2009 16:36:02 15.8 C 82 % 12.74 C
85 04-09-2009 16:48:02 15.6 C 79 % 11.97 C
86 04-09-2009 17:00:02 16 C 78 % 12.17 C
87 04-09-2009 17:12:02 15.7 C 80 % 12.26 C
88 04-09-2009 17:24:02 15.1 C 79 % 11.49 C
89 04-09-2009 17:36:02 14.4 C 84 % 11.73 C
90 04-09-2009 17:48:02 14.2 C 85 % 11.72 C
91 04-09-2009 18:00:02 14 C 85 % 11.52 C
92 04-09-2009 18:12:02 14.2 C 86 % 11.89 C
93 04-09-2009 18:24:02 14.5 C 87 % 12.36 C
94 04-09-2009 18:36:02 14.2 C 86 % 11.89 C
95 04-09-2009 18:48:02 14 C 81 % 10.79 C
96 04-09-2009 19:00:02 14.1 C 82 % 11.08 C
97 04-09-2009 19:12:03 14.6 C 79 % 11 C
98 04-09-2009 19:24:02 15 C 71 % 9.79 C
99 04-09-2009 19:36:02 14.5 C 68 % 8.67 C
100 04-09-2009 19:48:01 13.9 C 65 % 7.44 C
Sensor: Nr:Datum:Temp:Feuchte:Taupunkt:
Aussen-T/F 101 04-09-2009 20:00:01 13.3 C 71 % 8.16 C
102 04-09-2009 20:12:02 12.7 C 73 % 7.99 C
103 04-09-2009 20:24:02 12.3 C 76 % 8.2 C
104 04-09-2009 20:36:01 11.9 C 79 % 8.38 C
105 04-09-2009 20:48:01 12 C 75 % 7.71 C
106 04-09-2009 21:00:01 12.3 C 72 % 7.4 C
107 04-09-2009 21:12:01 12.5 C 71 % 7.39 C
108 04-09-2009 21:24:02 12.5 C 70 % 7.18 C
109 04-09-2009 21:36:01 12.4 C 71 % 7.3 C
110 04-09-2009 21:49:02 12.5 C 71 % 7.39 C
111 04-09-2009 22:01:02 12.4 C 71 % 7.3 C
112 04-09-2009 22:13:02 12 C 72 % 7.12 C
113 04-09-2009 22:25:02 11.8 C 75 % 7.52 C
114 04-09-2009 22:37:02 11.9 C 75 % 7.62 C
115 04-09-2009 22:49:02 11.9 C 76 % 7.81 C
116 04-09-2009 23:01:02 11.9 C 76 % 7.81 C
117 04-09-2009 23:13:02 12.1 C 74 % 7.61 C
118 04-09-2009 23:25:02 12.5 C 71 % 7.39 C
119 04-09-2009 23:37:02 12.4 C 69 % 6.88 C
120 04-09-2009 23:49:02 12.5 C 69 % 6.97 C
121 05-09-2009 00:01:02 12.7 C 69 % 7.17 C
122 05-09-2009 00:13:02 12.8 C 69 % 7.26 C
123 05-09-2009 00:25:03 12.8 C 70 % 7.47 C
124 05-09-2009 00:37:03 12.9 C 69 % 7.36 C
125 05-09-2009 00:49:03 12.7 C 70 % 7.38 C
Sensor: Nr:Datum:Temp:Feuchte:Taupunkt:
Aussen-T/F 126 05-09-2009 01:01:03 12.5 C 71 % 7.39 C
127 05-09-2009 01:13:03 12.5 C 71 % 7.39 C
128 05-09-2009 01:25:03 12.5 C 70 % 7.18 C
129 05-09-2009 01:37:03 12.6 C 70 % 7.28 C
130 05-09-2009 01:49:03 12.5 C 70 % 7.18 C
131 05-09-2009 02:01:03 12.5 C 70 % 7.18 C
132 05-09-2009 02:13:03 12.6 C 69 % 7.07 C
133 05-09-2009 02:25:03 12.5 C 70 % 7.18 C
134 05-09-2009 02:37:03 12.5 C 70 % 7.18 C
135 05-09-2009 02:49:03 12.6 C 69 % 7.07 C
136 05-09-2009 03:01:03 12.6 C 70 % 7.28 C
137 05-09-2009 03:13:03 12.7 C 69 % 7.17 C
138 05-09-2009 03:25:03 12.8 C 69 % 7.26 C
139 05-09-2009 03:37:03 12.7 C 70 % 7.38 C
140 05-09-2009 03:49:03 12.7 C 70 % 7.38 C
141 05-09-2009 04:01:03 12.8 C 70 % 7.47 C
142 05-09-2009 04:13:04 12.8 C 69 % 7.26 C
143 05-09-2009 04:25:04 12.8 C 70 % 7.47 C
144 05-09-2009 04:37:04 12.7 C 70 % 7.38 C
145 05-09-2009 04:49:04 12.7 C 70 % 7.38 C
146 05-09-2009 05:01:04 12.7 C 70 % 7.38 C
147 05-09-2009 05:13:04 12.7 C 70 % 7.38 C
148 05-09-2009 05:25:04 12.6 C 71 % 7.49 C
149 05-09-2009 05:37:04 12.6 C 71 % 7.49 C
150 05-09-2009 05:49:04 12.6 C 71 % 7.49 C
Sensor: Nr:Datum:Temp:Feuchte:Taupunkt:
Aussen-T/F 151 05-09-2009 06:01:04 12.7 C 70 % 7.38 C
152 05-09-2009 06:13:04 12.5 C 70 % 7.18 C
153 05-09-2009 06:25:04 12.3 C 72 % 7.4 C
154 05-09-2009 06:37:04 12.4 C 72 % 7.5 C
155 05-09-2009 06:49:04 12.5 C 71 % 7.39 C
156 05-09-2009 07:01:04 12.6 C 71 % 7.49 C
157 05-09-2009 07:13:04 12.7 C 70 % 7.38 C
158 05-09-2009 07:25:04 12.5 C 70 % 7.18 C
159 05-09-2009 07:37:04 12.5 C 71 % 7.39 C
160 05-09-2009 07:49:04 12.4 C 71 % 7.3 C
161 05-09-2009 08:01:05 12.4 C 72 % 7.5 C
162 05-09-2009 08:13:05 12.6 C 72 % 7.69 C
163 05-09-2009 08:25:05 12.6 C 72 % 7.69 C
164 05-09-2009 08:37:05 13.1 C 70 % 7.76 C
165 05-09-2009 08:49:05 13.2 C 69 % 7.64 C
166 05-09-2009 09:01:02 13.6 C 69 % 8.03 C
167 05-09-2009 09:13:02 14.1 C 66 % 7.85 C
168 05-09-2009 09:25:01 14.7 C 63 % 7.74 C
169 05-09-2009 09:37:02 14.7 C 62 % 7.5 C
170 05-09-2009 09:49:02 15.1 C 61 % 7.64 C
171 05-09-2009 10:01:02 15.4 C 61 % 7.93 C
172 05-09-2009 10:13:02 15.1 C 60 % 7.4 C
173 05-09-2009 10:25:02 15.2 C 60 % 7.5 C
174 05-09-2009 10:37:02 15.7 C 59 % 7.72 C
175 05-09-2009 10:49:01 16.3 C 55 % 7.25 C
Sensor: Nr:Datum:Temp:Feuchte:Taupunkt:
Aussen-T/F 176 05-09-2009 11:01:02 16.9 C 53 % 7.27 C
177 05-09-2009 11:13:02 17.5 C 50 % 6.97 C
178 05-09-2009 11:25:01 17.3 C 51 % 7.08 C
179 05-09-2009 11:37:01 16.8 C 53 % 7.18 C
180 05-09-2009 11:49:02 16.8 C 52 % 6.9 C
181 05-09-2009 12:01:02 17.3 C 47 % 5.89 C
182 05-09-2009 12:13:02 17.7 C 44 % 5.31 C
183 05-09-2009 12:25:02 17.7 C 43 % 4.98 C
184 05-09-2009 12:37:02 17.7 C 42 % 4.64 C
185 05-09-2009 12:49:02 18 C 41 % 4.57 C
186 05-09-2009 13:01:02 18.2 C 41 % 4.75 C
187 05-09-2009 13:13:03 18.4 C 42 % 5.27 C
188 05-09-2009 13:25:02 18.2 C 40 % 4.39 C
189 05-09-2009 13:37:02 18 C 39 % 3.85 C
190 05-09-2009 13:49:01 18.1 C 41 % 4.66 C
191 05-09-2009 14:01:01 18 C 41 % 4.57 C
192 05-09-2009 14:13:01 18.6 C 37 % 3.64 C
193 05-09-2009 14:25:01 19.9 C 35 % 4 C
194 05-09-2009 14:37:01 20.2 C 34 % 3.85 C
195 05-09-2009 14:49:02 20.3 C 30 % 2.18 C
196 05-09-2009 15:01:02 21 C 29 % 2.31 C
197 05-09-2009 15:13:02 21.8 C 27 % 1.99 C
198 05-09-2009 15:25:03 21 C 27 % 1.31 C
199 05-09-2009 15:37:02 22.1 C 26 % 1.72 C
200 05-09-2009 15:49:03 21.8 C 27 % 1.99 C
Sensor: Nr:Datum:Temp:Feuchte:Taupunkt:
Aussen-T/F 201 05-09-2009 16:01:02 20 C 34 % 3.68 C
202 05-09-2009 16:13:02 18.5 C 43 % 5.7 C
203 05-09-2009 16:25:02 16.8 C 50 % 6.33 C
204 05-09-2009 16:37:02 16.9 C 52 % 6.99 C
205 05-09-2009 16:49:02 17.4 C 47 % 5.98 C
206 05-09-2009 17:01:02 17.4 C 46 % 5.67 C
207 05-09-2009 17:13:02 16.8 C 48 % 5.74 C
208 05-09-2009 17:25:02 16.9 C 48 % 5.83 C
209 05-09-2009 17:37:02 18.5 C 41 % 5.01 C
210 05-09-2009 17:49:02 19.5 C 37 % 4.44 C
211 05-09-2009 18:01:01 18.7 C 39 % 4.48 C
212 05-09-2009 18:13:01 17.9 C 43 % 5.16 C
213 05-09-2009 18:25:02 17.9 C 41 % 4.48 C
214 05-09-2009 18:37:02 18.6 C 37 % 3.64 C
215 05-09-2009 18:49:01 18.3 C 39 % 4.12 C
216 05-09-2009 19:01:02 17.8 C 43 % 5.07 C
217 05-09-2009 19:13:02 17.1 C 47 % 5.71 C
218 05-09-2009 19:25:01 17.3 C 49 % 6.5 C
219 05-09-2009 19:37:02 17.3 C 50 % 6.79 C
220 05-09-2009 19:49:02 16.4 C 55 % 7.35 C
221 05-09-2009 20:01:02 15.8 C 59 % 7.81 C
222 05-09-2009 20:13:02 15.3 C 60 % 7.59 C
223 05-09-2009 20:25:02 14.8 C 63 % 7.83 C
224 05-09-2009 20:37:02 14.6 C 63 % 7.64 C
225 05-09-2009 20:49:02 14 C 66 % 7.76 C
Sensor: Nr:Datum:Temp:Feuchte:Taupunkt:
Aussen-T/F 226 05-09-2009 21:01:02 13.9 C 67 % 7.88 C
227 05-09-2009 21:13:02 13.8 C 69 % 8.22 C
228 05-09-2009 21:25:02 13.7 C 69 % 8.12 C
229 05-09-2009 21:37:02 13.7 C 70 % 8.33 C
230 05-09-2009 21:49:02 13.5 C 72 % 8.56 C
231 05-09-2009 22:01:02 13.2 C 73 % 8.47 C
232 05-09-2009 22:13:02 13.1 C 74 % 8.58 C
233 05-09-2009 22:25:02 12.8 C 75 % 8.48 C
234 05-09-2009 22:37:02 12.8 C 74 % 8.29 C
235 05-09-2009 22:49:02 12.7 C 74 % 8.19 C
236 05-09-2009 23:01:01 12.6 C 75 % 8.29 C
237 05-09-2009 23:13:01 12.5 C 74 % 8 C
238 05-09-2009 23:25:02 12.3 C 74 % 7.8 C
239 05-09-2009 23:37:02 12.2 C 76 % 8.1 C
240 05-09-2009 23:49:01 11.8 C 77 % 7.9 C

Legende:
   Min
   Max


Maximal/Minimal-Werte vom 04.09.2009 - 05.09.2009

Sensor Min Max Avg
Temp
(Aussen-T/F)
11.8 °C
04-09-2009  22:25:02
22.1 °C
05-09-2009  15:37:02
14.84 °C
Feuchte
(Aussen-T/F)
26 %
05-09-2009  15:37:02
90 %
04-09-2009  15:24:02
62.34 %
Taupunkt
(Aussen-T/F)
1.31 C
05-09-2009  15:25:03
13.7 C
04-09-2009  16:24:01
7.25 C

Die Daten stammen von einer Davis Vantage Pro 2 Wetter-Station und werden unter Linux mit der Software wview2wettercgi und aufbereitet. Alle Angaben erfolgen ohne Gewähr für ihre Vollständigkeit oder Richtigkeit.
Kontakt: Rainer Krienke krienke@uni-koblenz.de . Meine Webseiten an der Uni Koblenz oder privat.
Version: $Revision: 0.78 $